Conover, Ohio
Current Conditions -  °F | °C
As of 4:56 AM on Saturday 29 Nov 2014 (Local Time) from KDAY Reporting Station
Broken Clouds Broken Clouds  
Wind Chill: 28°   Ceiling: 16000
Heat Index: 36°   Visibility: 10mi
Dew Point: 21°   Wind: 13mph
Humidity: 55%   Direction: 180°S
Pressure: 30"   Gusts: NA
Location:  40.14°N, 84.05°W
Report Text: KDAY 290956Z 18011KT 10SM BKN160 02/M06 A3000 RMK AO2 SLP169 T00221061 $
Loading
Personal Weather Stations






























Interactive Weather Map New forecast layout! Learn more

10-Day Weather Forecast

Advertisements
Track Severe Weather on mobile